Tacoma, WA

10:33 AM PST on November 21, 2017 (GMT -0800)
McChord Air Force Base

Weather History for KTCM - March, 2014

Change the Weather History Date:

Sunday, March 30, 2014

  Actual Average Record
Temperature  
Mean Temperature 43 °F -  
Max Temperature 52 °F 52 °F 72 °F (1995)
Min Temperature 35 °F 33 °F 27 °F (1968)
Degree Days  
Heating Degree Days 22    
Moisture  
Dew Point 41 °F    
Average Humidity 93    
Maximum Humidity 100    
Minimum Humidity 64    
Precipitation  
Precipitation 0.09 in - - ()
Sea Level Pressure  
Sea Level Pressure 29.95 in    
Wind  
Wind Speed 8 mph (South)    
Max Wind Speed 15 mph    
Max Gust Speed 20 mph    
Visibility 8 miles    
Events Fog , Rain    
Averages and records for this station are not official NWS values.
T = Trace of Precipitation, MM = Missing Value Source: NWS Daily Summary

Daily Weather History Graph

Daily Weather History Graph

Search for Another Location

Airport or City:

Trip Planner

Search our weather history database for the weather conditions in past years. The results will help you decide how hot, cold, wet, or windy it might be!

Date:

Astronomy

Mar. 30, 2014 Rise Set
Actual Time 6:52 AM PDT 7:36 PM PDT
Civil Twilight 6:21 AM PDT 8:07 PM PDT
Nautical Twilight 5:45 AM PDT 8:44 PM PDT
Astronomical Twilight 5:06 AM PDT 9:22 PM PDT
Moon 6:41 AM PDT (3/30) 7:58 PM PDT (3/30)
Length of Visible Light 13h 45m
Length of Day
12h 44m
New Moon, 0% of the Moon is Illuminated
Mar 30
New Moon
Apr 7
First Quarter
Apr 15
Full
Apr 22
Last Quarter
Apr 28
New

Hourly Weather History & Observations

Time (PDT) Temp. Windchill Dew Point Humidity Pressure Visibility Wind Dir Wind Speed Gust Speed Precip Events Conditions
12:32 AM 44.6 °F 39.2 °F 44.6 °F 100% 29.85 in 10.0 mi South 10.4 mph - N/A Rain Light Rain
12:58 AM 44.2 °F 39.2 °F 44.1 °F 99% 29.87 in 10.0 mi South 9.2 mph - 0.01 in Rain Light Rain
1:27 AM 44.6 °F 39.2 °F 44.6 °F 100% 29.86 in 10.0 mi SSW 10.4 mph - N/A   Overcast
1:32 AM 44.6 °F 39.7 °F 44.6 °F 100% 29.86 in 10.0 mi South 9.2 mph - N/A   Overcast
1:37 AM 44.6 °F 40.2 °F 44.6 °F 100% 29.87 in 10.0 mi SSW 8.1 mph - N/A Rain Light Rain
1:47 AM 44.6 °F 40.7 °F 44.6 °F 100% 29.87 in 10.0 mi SSW 6.9 mph - N/A Rain Light Rain
1:52 AM 44.6 °F 40.7 °F 44.6 °F 100% 29.87 in 10.0 mi South 6.9 mph - N/A Rain Light Rain
1:56 AM 44.6 °F 40.2 °F 44.6 °F 100% 29.87 in 10.0 mi South 8.1 mph - N/A   Overcast
1:58 AM 44.4 °F 40.0 °F 44.1 °F 99% 29.89 in 10.0 mi South 8.1 mph - 0.01 in   Overcast
2:04 AM 44.6 °F 40.2 °F 42.8 °F 93% 29.87 in 10.0 mi South 8.1 mph - N/A Rain Light Rain
2:13 AM 44.6 °F 40.2 °F 44.6 °F 100% 29.87 in 10.0 mi SSW 8.1 mph - N/A   Overcast
2:23 AM 44.6 °F 39.7 °F 42.8 °F 93% 29.87 in 10.0 mi South 9.2 mph - N/A   Mostly Cloudy
2:35 AM 44.6 °F 40.2 °F 42.8 °F 93% 29.87 in 10.0 mi South 8.1 mph - N/A Rain Light Rain
2:45 AM 44.6 °F 39.7 °F 42.8 °F 93% 29.88 in 10.0 mi South 9.2 mph - N/A   Overcast
2:58 AM 43.5 °F 38.3 °F 43.3 °F 99% 29.90 in 10.0 mi SSW 9.2 mph - 0.00 in   Overcast
3:58 AM 43.0 °F 37.7 °F 42.6 °F 99% 29.91 in 10.0 mi South 9.2 mph - N/A   Overcast
3:59 AM 42.8 °F 37.5 °F 42.8 °F 100% 29.89 in 10.0 mi South 9.2 mph - N/A Rain Light Rain
4:00 AM 42.8 °F 37.5 °F 42.8 °F 100% 29.89 in 10.0 mi South 9.2 mph - N/A Rain Light Rain
4:05 AM 42.8 °F 37.0 °F 42.8 °F 100% 29.89 in 9.0 mi South 10.4 mph - N/A Rain Light Rain
4:10 AM 42.8 °F 36.2 °F 42.8 °F 100% 29.89 in 9.0 mi South 12.7 mph - N/A   Overcast
4:14 AM 42.8 °F 36.6 °F 42.8 °F 100% 29.89 in 10.0 mi South 11.5 mph - N/A   Overcast
4:58 AM 42.3 °F 37.3 °F 42.1 °F 99% 29.92 in 10.0 mi South 8.1 mph - 0.00 in   Overcast
5:22 AM 42.8 °F 37.0 °F 42.8 °F 100% 29.91 in 9.0 mi SW 10.4 mph - N/A   Overcast
5:23 AM 42.8 °F 37.0 °F 42.8 °F 100% 29.91 in 8.0 mi SSW 10.4 mph - N/A   Overcast
5:28 AM 42.8 °F 37.0 °F 42.8 °F 100% 29.91 in 7.0 mi South 10.4 mph - N/A   Overcast
5:33 AM 42.8 °F 37.0 °F 42.8 °F 100% 29.91 in 8.0 mi SSW 10.4 mph - N/A Rain Light Rain
5:42 AM 42.8 °F 37.0 °F 42.8 °F 100% 29.91 in 10.0 mi SSW 10.4 mph - N/A   Overcast
5:47 AM 42.8 °F 37.5 °F 42.8 °F 100% 29.91 in 10.0 mi SSW 9.2 mph - N/A   Mostly Cloudy
5:58 AM 42.1 °F 36.1 °F 41.9 °F 99% 29.93 in 10.0 mi South 10.4 mph - 0.01 in   Mostly Cloudy
6:58 AM 39.6 °F 33.0 °F 39.2 °F 99% 29.95 in 10.0 mi South 10.4 mph - N/A   Partly Cloudy
7:58 AM 41.4 °F 36.2 °F 41.2 °F 99% 29.96 in 10.0 mi South 8.1 mph - N/A   Clear
8:58 AM 44.1 °F 38.1 °F 42.6 °F 95% 29.98 in 10.0 mi South 11.5 mph - N/A   Overcast
9:58 AM 46.4 °F 41.1 °F 42.6 °F 87% 29.99 in 10.0 mi South 11.5 mph - N/A   Partly Cloudy
10:58 AM 48.4 °F - 41.0 °F 76% 30.00 in 10.0 mi South 15.0 mph - N/A   Mostly Cloudy
11:03 AM 48.2 °F - 41.0 °F 76% 29.98 in 10.0 mi SSW 15.0 mph 19.6 mph N/A   Mostly Cloudy
11:43 AM 50.0 °F - 41.0 °F 71% 29.98 in 10.0 mi SSW 10.4 mph - N/A   Mostly Cloudy
11:58 AM 48.7 °F - 40.6 °F 74% 30.00 in 10.0 mi SW 11.5 mph - N/A   Mostly Cloudy
12:58 PM 51.4 °F - 39.6 °F 64% 29.99 in 10.0 mi South 12.7 mph - N/A   Overcast
1:11 PM 50.0 °F - 39.2 °F 66% 29.97 in 10.0 mi SW 12.7 mph - N/A   Overcast
1:12 PM 50.0 °F - 39.2 °F 66% 29.98 in 10.0 mi SSW 11.5 mph - N/A Rain Light Rain
1:29 PM 48.2 °F - 42.8 °F 82% 29.98 in 10.0 mi NW 12.7 mph - N/A   Overcast
1:58 PM 48.6 °F - 42.8 °F 80% 30.00 in 10.0 mi WNW 10.4 mph - 0.01 in   Overcast
2:05 PM 48.2 °F - 42.8 °F 82% 29.99 in 10.0 mi West 12.7 mph - N/A   Light Drizzle
2:10 PM 46.4 °F 40.7 °F 42.8 °F 87% 29.99 in 10.0 mi West 12.7 mph - N/A   Light Drizzle
2:15 PM 46.4 °F 40.4 °F 42.8 °F 87% 29.99 in 10.0 mi West 13.8 mph - N/A Rain Light Rain
2:20 PM 46.4 °F 40.4 °F 44.6 °F 93% 29.98 in 10.0 mi West 13.8 mph - N/A Rain Light Rain
2:30 PM 44.6 °F 39.2 °F 44.6 °F 100% 29.98 in 7.0 mi West 10.4 mph - N/A Rain Light Rain
2:58 PM 45.9 °F 41.7 °F 43.2 °F 90% 30.00 in 8.0 mi WNW 8.1 mph - 0.04 in Rain Light Rain
3:48 PM 48.2 °F - 44.6 °F 87% 29.98 in 10.0 mi SW 6.9 mph - N/A   Mostly Cloudy
3:58 PM 48.2 °F - 43.9 °F 85% 30.00 in 10.0 mi SSW 9.2 mph - 0.00 in   Overcast
4:58 PM 48.9 °F - 43.5 °F 82% 30.00 in 10.0 mi SSW 6.9 mph - N/A   Scattered Clouds
5:18 PM 48.2 °F - 44.6 °F 87% 29.99 in 10.0 mi SSW 10.4 mph - N/A   Mostly Cloudy
5:19 PM 48.2 °F - 44.6 °F 87% 29.99 in 10.0 mi SSW 11.5 mph - N/A Rain Light Rain
5:39 PM 46.4 °F - 42.8 °F 87% 29.99 in 10.0 mi SSW 2.3 mph - N/A Rain Light Rain
5:46 PM 46.4 °F 44.3 °F 42.8 °F 87% 29.99 in 10.0 mi SSW 4.6 mph - N/A   Overcast
5:58 PM 46.9 °F - 41.5 °F 81% 30.01 in 10.0 mi South 4.6 mph - 0.01 in   Overcast
6:29 PM 46.4 °F 42.4 °F 42.8 °F 87% 29.99 in 10.0 mi SSW 8.1 mph - N/A Rain Light Rain
6:45 PM 46.4 °F 43.5 °F 42.8 °F 87% 29.99 in 10.0 mi SE 5.8 mph - N/A   Overcast
6:58 PM 45.5 °F 42.5 °F 44.2 °F 95% 30.01 in 10.0 mi SE 5.8 mph - 0.00 in   Overcast
7:58 PM 42.1 °F - 41.7 °F 99% 30.01 in 10.0 mi South 2.3 mph - N/A   Scattered Clouds
8:58 PM 41.0 °F - 40.8 °F 99% 30.01 in 10.0 mi ESE 1.2 mph - N/A   Clear
9:58 PM 39.4 °F - 39.2 °F 99% 30.02 in 10.0 mi South 1.2 mph - N/A   Clear
10:38 PM 39.2 °F - 37.4 °F 93% 30.00 in 2.5 mi Calm Calm - N/A   Clear
10:43 PM 37.4 °F - 37.4 °F 100% 30.00 in 0.8 mi ESE 1.2 mph - N/A   Clear
10:48 PM 35.6 °F - 35.6 °F 100% 29.99 in 0.5 mi ESE 2.3 mph - N/A Fog Fog
10:53 PM 35.6 °F - 35.6 °F 100% 29.99 in 0.5 mi Calm Calm - N/A Fog Fog
10:58 PM 35.6 °F - 35.6 °F 100% 30.01 in 0.2 mi Calm Calm - N/A Fog Fog
11:03 PM 37.4 °F - 35.6 °F 93% 29.99 in 0.5 mi ESE 1.2 mph - N/A Fog Fog
11:08 PM 37.4 °F - 37.4 °F 100% 29.99 in 0.5 mi East 1.2 mph - N/A Fog Fog
11:13 PM 37.4 °F - 35.6 °F 93% 29.99 in 0.8 mi East 1.2 mph - N/A   Clear
11:18 PM 35.6 °F - 35.6 °F 100% 29.99 in 0.8 mi East 1.2 mph - N/A   Clear
11:23 PM 35.6 °F - 35.6 °F 100% 29.99 in 0.5 mi East 2.3 mph - N/A Fog Fog
11:28 PM 35.6 °F - 35.6 °F 100% 29.99 in 0.5 mi East 1.2 mph - N/A Fog Fog
11:33 PM 35.6 °F - 35.6 °F 100% 29.99 in 0.5 mi Calm Calm - N/A Fog Fog
11:38 PM 37.4 °F - 35.6 °F 93% 29.98 in 0.5 mi Calm Calm - N/A Fog Fog
11:43 PM 37.4 °F - 37.4 °F 100% 29.98 in 0.8 mi ENE 2.3 mph - N/A   Clear
11:48 PM 37.4 °F - 37.4 °F 100% 29.98 in 1.0 mi East 1.2 mph - N/A   Clear
11:53 PM 37.4 °F - 37.4 °F 100% 29.98 in 0.8 mi Calm Calm - N/A   Clear
11:58 PM 35.6 °F - 35.6 °F 100% 30.00 in 0.5 mi Calm Calm - N/A Fog Fog